Alexandra, New Zealand
Current Conditions -  °F | °C
As of 10:30 PM on Saturday 20 Dec 2014 (Local Time) from NZCH Reporting Station
Clear Clear  
Wind Chill: 72°   Ceiling: Unl
Heat Index: 72°   Visibility: 6mi
Dew Point: 52°   Wind: 10mph
Humidity: 50%   Direction: 360°N
Pressure: 29.59"   Gusts: NA
Location:  45.25°S, 169.39°E
Report Text: NZCH 201030Z AUTO 36009KT 9999 NCD 22/11 Q1002 NOSIG
Loading
Personal Weather Stations






























Interactive Weather Map New forecast layout! Learn more

10-Day Weather Forecast

Advertisements
Track Severe Weather on mobile